createdAt,value
2023-01-09T00:00:18.324Z,97469.55
2023-01-09T00:01:44.480Z,97467.68
2023-01-09T00:02:46.700Z,97462.80
2023-01-09T00:03:48.947Z,97462.99
2023-01-09T00:04:50.762Z,97462.19
2023-01-09T00:05:52.792Z,97466.98
2023-01-09T00:06:54.724Z,97466.02
2023-01-09T00:07:56.943Z,97464.73
2023-01-09T00:08:59.408Z,97468.29
2023-01-09T00:10:01.452Z,97465.08
2023-01-09T00:11:03.913Z,97460.14
2023-01-09T00:12:06.154Z,97457.90
2023-01-09T00:13:12.160Z,97456.45
2023-01-09T00:14:17.256Z,97453.21
2023-01-09T00:15:19.264Z,97456.48
2023-01-09T00:16:21.293Z,97452.05
2023-01-09T00:17:23.353Z,97450.20
2023-01-09T00:18:25.690Z,97453.27
2023-01-09T00:19:27.594Z,97447.96
2023-01-09T00:20:29.663Z,97443.71
2023-01-09T00:21:31.587Z,97442.27
2023-01-09T00:22:33.726Z,97438.95
2023-01-09T00:23:37.093Z,97429.23
2023-01-09T00:24:39.015Z,97426.48
2023-01-09T00:25:42.496Z,97428.23
2023-01-09T00:26:45.163Z,97428.50
2023-01-09T00:27:47.819Z,97426.49
2023-01-09T00:28:51.825Z,97426.27
2023-01-09T00:29:53.837Z,97426.02
2023-01-09T00:30:57.540Z,97426.17
2023-01-09T00:31:59.599Z,97426.34
2023-01-09T00:33:01.469Z,97419.56
2023-01-09T00:34:06.674Z,97421.59
2023-01-09T00:35:15.584Z,97421.28
2023-01-09T00:36:17.698Z,97421.23
2023-01-09T00:37:19.518Z,97421.39
2023-01-09T00:38:21.643Z,97419.45
2023-01-09T00:39:23.858Z,97423.30
2023-01-09T00:40:25.861Z,97422.89
2023-01-09T00:41:36.255Z,97424.10
2023-01-09T00:42:38.969Z,97430.95
2023-01-09T00:43:50.194Z,97430.83
2023-01-09T00:45:02.386Z,97432.02
2023-01-09T00:46:07.501Z,97431.48
2023-01-09T00:47:19.934Z,97432.05
2023-01-09T00:48:26.617Z,97433.83
2023-01-09T00:49:36.490Z,97431.50
2023-01-09T00:50:38.697Z,97433.98
2023-01-09T00:51:42.338Z,97433.41
2023-01-09T00:52:47.131Z,97429.59
2023-01-09T00:53:51.115Z,97431.05
2023-01-09T00:54:53.090Z,97430.00
2023-01-09T00:55:59.350Z,97430.52
2023-01-09T00:57:01.609Z,97434.95
2023-01-09T00:58:03.959Z,97430.48
2023-01-09T00:59:07.935Z,97429.89
2023-01-09T01:00:10.943Z,97428.56
2023-01-09T01:01:13.295Z,97429.98
2023-01-09T01:02:15.648Z,97427.58
2023-01-09T01:03:17.769Z,97426.37
2023-01-09T01:04:38.170Z,97426.02
2023-01-09T01:05:59.277Z,97427.05
2023-01-09T01:07:19.891Z,97432.48
2023-01-09T01:08:21.823Z,97428.64
2023-01-09T01:09:23.993Z,97426.86
2023-01-09T01:10:27.514Z,97426.96
2023-01-09T01:11:32.622Z,97425.25
2023-01-09T01:12:34.791Z,97427.46
2023-01-09T01:13:39.384Z,97421.38
2023-01-09T01:14:41.805Z,97419.09
2023-01-09T01:15:46.063Z,97417.50
2023-01-09T01:16:47.967Z,97418.08
2023-01-09T01:17:50.321Z,97418.19
2023-01-09T01:18:52.554Z,97421.34
2023-01-09T01:19:54.366Z,97422.21
2023-01-09T01:20:56.200Z,97418.05
2023-01-09T01:21:58.132Z,97415.28
2023-01-09T01:23:00.246Z,97417.68
2023-01-09T01:24:02.092Z,97421.20
2023-01-09T01:25:06.025Z,97419.08
2023-01-09T01:26:14.071Z,97422.65
2023-01-09T01:27:15.960Z,97422.59
2023-01-09T01:28:17.993Z,97423.35
2023-01-09T01:29:19.945Z,97423.20
2023-01-09T01:30:22.024Z,97419.54
2023-01-09T01:31:24.050Z,97422.75
2023-01-09T01:32:28.430Z,97425.02
2023-01-09T01:33:31.235Z,97423.05
2023-01-09T01:34:33.361Z,97421.40
2023-01-09T01:35:36.141Z,97419.00
2023-01-09T01:36:38.039Z,97421.43
2023-01-09T01:37:40.849Z,97423.04
2023-01-09T01:38:43.695Z,97420.85
2023-01-09T01:39:45.691Z,97425.33
2023-01-09T01:40:53.731Z,97430.50
2023-01-09T01:41:55.653Z,97425.14
2023-01-09T01:42:58.798Z,97425.88
2023-01-09T01:44:07.591Z,97423.11
2023-01-09T01:45:14.301Z,97422.95
2023-01-09T01:46:18.002Z,97417.79
2023-01-09T01:47:28.378Z,97418.55
2023-01-09T01:48:32.352Z,97414.97
2023-01-09T01:49:34.339Z,97412.09
2023-01-09T01:51:04.550Z,97411.77
2023-01-09T01:52:07.435Z,97404.73
2023-01-09T01:53:38.817Z,97406.23
2023-01-09T01:54:41.832Z,97401.52
2023-01-09T01:56:10.034Z,97399.30
2023-01-09T01:57:12.643Z,97395.60
2023-01-09T01:58:16.256Z,97391.90
2023-01-09T01:59:28.489Z,97386.41
2023-01-09T02:00:37.129Z,97385.48
2023-01-09T02:01:44.601Z,97385.80
2023-01-09T02:02:46.619Z,97387.90
2023-01-09T02:03:52.478Z,97390.21
2023-01-09T02:04:57.449Z,97386.91
2023-01-09T02:05:59.919Z,97386.33
2023-01-09T02:07:08.832Z,97390.13
2023-01-09T02:08:11.551Z,97387.38
2023-01-09T02:09:17.977Z,97385.02
2023-01-09T02:10:23.474Z,97385.84
2023-01-09T02:11:25.418Z,97384.36
2023-01-09T02:12:28.438Z,97383.23
2023-01-09T02:13:32.734Z,97385.56
2023-01-09T02:14:34.898Z,97381.42
2023-01-09T02:16:05.206Z,97384.30
2023-01-09T02:17:41.735Z,97384.84
2023-01-09T02:19:06.919Z,97379.92
2023-01-09T02:20:43.962Z,97383.37
2023-01-09T02:22:27.444Z,97375.95
2023-01-09T02:23:54.727Z,97375.90
2023-01-09T02:25:31.544Z,97370.83
2023-01-09T02:26:45.997Z,97373.45
2023-01-09T02:27:47.855Z,97372.91
2023-01-09T02:29:47.370Z,97375.50
2023-01-09T02:31:10.135Z,97370.23
2023-01-09T02:33:08.204Z,97369.80
2023-01-09T02:34:27.604Z,97364.02
2023-01-09T02:35:59.058Z,97360.19
2023-01-09T02:37:25.928Z,97359.55
2023-01-09T02:38:47.177Z,97358.50
2023-01-09T02:40:19.409Z,97358.59
2023-01-09T02:41:36.333Z,97355.54
2023-01-09T02:42:42.026Z,97351.48
2023-01-09T02:43:44.480Z,97354.46
2023-01-09T02:44:47.072Z,97353.61
2023-01-09T02:45:48.933Z,97349.91
2023-01-09T02:47:08.580Z,97351.55
2023-01-09T02:48:11.392Z,97348.88
2023-01-09T02:49:17.025Z,97347.52
2023-01-09T02:50:25.456Z,97349.60
2023-01-09T02:51:43.528Z,97349.93
2023-01-09T02:53:00.501Z,97346.73
2023-01-09T02:54:21.885Z,97347.44
2023-01-09T02:55:38.870Z,97348.25
2023-01-09T02:56:49.687Z,97348.63
2023-01-09T02:58:19.282Z,97346.95
2023-01-09T02:59:36.823Z,97346.07
2023-01-09T03:00:45.215Z,97340.65
2023-01-09T03:02:09.587Z,97343.27
2023-01-09T03:03:27.590Z,97338.94
2023-01-09T03:04:52.893Z,97338.45
2023-01-09T03:06:34.566Z,97336.26
2023-01-09T03:07:55.998Z,97331.41
2023-01-09T03:09:06.980Z,97327.81
2023-01-09T03:10:23.471Z,97328.44
2023-01-09T03:11:30.760Z,97323.02
2023-01-09T03:12:33.784Z,97320.98
2023-01-09T03:13:56.652Z,97321.70
2023-01-09T03:15:01.978Z,97318.94
2023-01-09T03:16:09.673Z,97317.79
2023-01-09T03:17:16.744Z,97317.56
2023-01-09T03:18:24.664Z,97319.63
2023-01-09T03:19:32.169Z,97317.53
2023-01-09T03:20:35.424Z,97312.30
2023-01-09T03:21:39.125Z,97312.45
2023-01-09T03:22:53.282Z,97309.46
2023-01-09T03:23:58.048Z,97310.92
2023-01-09T03:24:59.981Z,97307.64
2023-01-09T03:26:01.828Z,97308.44
2023-01-09T03:27:03.746Z,97305.39
2023-01-09T03:28:22.428Z,97307.35
2023-01-09T03:29:24.292Z,97306.91
2023-01-09T03:30:28.864Z,97303.49
2023-01-09T03:31:30.841Z,97304.92
2023-01-09T03:32:32.850Z,97300.64
2023-01-09T03:33:34.647Z,97302.22
2023-01-09T03:34:36.423Z,97299.34
2023-01-09T03:35:38.587Z,97300.12
2023-01-09T03:36:40.786Z,97299.85
2023-01-09T03:37:42.627Z,97298.14
2023-01-09T03:38:44.957Z,97295.91
2023-01-09T03:39:47.360Z,97294.63
2023-01-09T03:40:49.391Z,97295.98
2023-01-09T03:41:51.316Z,97295.20
2023-01-09T03:42:53.193Z,97295.02
2023-01-09T03:43:55.036Z,97299.02
2023-01-09T03:44:57.002Z,97294.91
2023-01-09T03:45:59.737Z,97294.44
2023-01-09T03:47:01.807Z,97296.39
2023-01-09T03:48:04.226Z,97295.81
2023-01-09T03:49:06.163Z,97300.55
2023-01-09T03:50:08.957Z,97296.49
2023-01-09T03:51:10.903Z,97294.02
2023-01-09T03:52:14.101Z,97300.04
2023-01-09T03:53:16.055Z,97304.30
2023-01-09T03:54:17.901Z,97300.41
2023-01-09T03:55:19.793Z,97299.07
2023-01-09T03:56:21.988Z,97301.11
2023-01-09T03:57:26.815Z,97298.91
2023-01-09T03:58:28.805Z,97295.13
2023-01-09T03:59:30.636Z,97291.03
2023-01-09T04:00:32.385Z,97292.78
2023-01-09T04:01:34.321Z,97293.27
2023-01-09T04:02:36.457Z,97291.56
2023-01-09T04:03:39.812Z,97293.52
2023-01-09T04:04:41.903Z,97292.89
2023-01-09T04:05:46.319Z,97290.86
2023-01-09T04:06:48.629Z,97288.67
2023-01-09T04:07:50.489Z,97287.83
2023-01-09T04:08:52.412Z,97286.27
2023-01-09T04:09:54.291Z,97284.78
2023-01-09T04:10:56.199Z,97280.78
2023-01-09T04:11:58.097Z,97283.70
2023-01-09T04:13:00.195Z,97279.48
2023-01-09T04:14:02.106Z,97279.17
2023-01-09T04:15:04.525Z,97278.95
2023-01-09T04:16:06.733Z,97279.54
2023-01-09T04:17:09.054Z,97277.63
2023-01-09T04:18:11.067Z,97274.42
2023-01-09T04:19:13.110Z,97276.04
2023-01-09T04:20:15.576Z,97275.55
2023-01-09T04:21:17.613Z,97277.69
2023-01-09T04:22:19.461Z,97271.65
2023-01-09T04:23:21.327Z,97271.73
2023-01-09T04:24:23.192Z,97272.63
2023-01-09T04:25:26.210Z,97272.31
2023-01-09T04:26:28.093Z,97272.86
2023-01-09T04:27:30.568Z,97270.66
2023-01-09T04:28:32.660Z,97269.50
2023-01-09T04:29:34.537Z,97267.95
2023-01-09T04:30:36.335Z,97267.75
2023-01-09T04:31:38.186Z,97270.15
2023-01-09T04:32:40.639Z,97270.09
2023-01-09T04:33:42.593Z,97270.19
2023-01-09T04:34:44.523Z,97271.23
2023-01-09T04:35:46.746Z,97271.47
2023-01-09T04:36:48.625Z,97267.35
2023-01-09T04:37:50.756Z,97266.19
2023-01-09T04:38:52.790Z,97262.57
2023-01-09T04:39:57.294Z,97262.39
2023-01-09T04:40:59.287Z,97264.89
2023-01-09T04:42:01.496Z,97263.89
2023-01-09T04:43:03.561Z,97260.48
2023-01-09T04:44:05.679Z,97261.98
2023-01-09T04:45:10.917Z,97264.92
2023-01-09T04:46:12.750Z,97265.40
2023-01-09T04:47:14.616Z,97263.95
2023-01-09T04:48:17.029Z,97260.92
2023-01-09T04:49:20.728Z,97259.44
2023-01-09T04:50:22.826Z,97258.36
2023-01-09T04:51:24.780Z,97259.00
2023-01-09T04:52:27.059Z,97258.52
2023-01-09T04:53:29.094Z,97253.07
2023-01-09T04:54:31.007Z,97250.78
2023-01-09T04:55:33.504Z,97249.55
2023-01-09T04:56:36.922Z,97251.48
2023-01-09T04:57:38.815Z,97246.30
2023-01-09T04:58:40.890Z,97245.40
2023-01-09T04:59:42.817Z,97246.19
2023-01-09T05:00:45.123Z,97243.67
2023-01-09T05:01:52.662Z,97244.97
2023-01-09T05:02:54.672Z,97244.92
2023-01-09T05:03:56.976Z,97247.89
2023-01-09T05:04:58.834Z,97246.89
2023-01-09T05:06:00.716Z,97245.14
2023-01-09T05:07:02.717Z,97243.85
2023-01-09T05:08:06.053Z,97240.98
2023-01-09T05:09:08.097Z,97240.15
2023-01-09T05:10:12.879Z,97237.65
2023-01-09T05:11:15.163Z,97238.23
2023-01-09T05:12:17.153Z,97233.72
2023-01-09T05:13:19.104Z,97230.55
2023-01-09T05:14:21.262Z,97234.44
2023-01-09T05:15:23.190Z,97234.07
2023-01-09T05:16:25.008Z,97233.91
2023-01-09T05:17:26.952Z,97226.41
2023-01-09T05:18:28.790Z,97226.99
2023-01-09T05:19:30.805Z,97226.73
2023-01-09T05:20:32.829Z,97225.97
2023-01-09T05:21:34.780Z,97226.67
2023-01-09T05:22:36.842Z,97220.89
2023-01-09T05:23:38.880Z,97222.58
2023-01-09T05:24:41.657Z,97222.05
2023-01-09T05:25:43.933Z,97224.29
2023-01-09T05:26:45.838Z,97225.14
2023-01-09T05:27:47.846Z,97221.67
2023-01-09T05:28:54.455Z,97224.45
2023-01-09T05:29:56.440Z,97222.09
2023-01-09T05:30:58.330Z,97223.06
2023-01-09T05:32:00.197Z,97221.94
2023-01-09T05:33:02.065Z,97225.14
2023-01-09T05:34:04.053Z,97226.46
2023-01-09T05:35:06.538Z,97226.78
2023-01-09T05:36:09.248Z,97225.82
2023-01-09T05:37:11.110Z,97224.05
2023-01-09T05:38:13.111Z,97222.77
2023-01-09T05:39:15.592Z,97217.11
2023-01-09T05:40:18.021Z,97214.29
2023-01-09T05:41:20.113Z,97211.52
2023-01-09T05:42:22.046Z,97212.34
2023-01-09T05:43:23.904Z,97209.94
2023-01-09T05:44:25.787Z,97212.34
2023-01-09T05:45:27.724Z,97211.68
2023-01-09T05:46:29.765Z,97212.74
2023-01-09T05:47:31.795Z,97208.54
2023-01-09T05:48:33.860Z,97210.77
2023-01-09T05:49:35.779Z,97211.69
2023-01-09T05:50:37.665Z,97210.67
2023-01-09T05:51:39.842Z,97210.30
2023-01-09T05:52:42.010Z,97208.70
2023-01-09T05:53:44.084Z,97206.79
2023-01-09T05:54:45.924Z,97207.02
2023-01-09T05:55:48.055Z,97208.71
2023-01-09T05:56:49.999Z,97207.29
2023-01-09T05:57:51.835Z,97203.54
2023-01-09T05:58:53.692Z,97203.06
2023-01-09T05:59:55.580Z,97198.58
2023-01-09T06:00:59.130Z,97199.31
2023-01-09T06:02:01.962Z,97197.77
2023-01-09T06:03:03.930Z,97195.05
2023-01-09T06:04:05.991Z,97198.98
2023-01-09T06:05:08.910Z,97197.66
2023-01-09T06:06:10.850Z,97200.01
2023-01-09T06:07:17.778Z,97191.63
2023-01-09T06:08:21.467Z,97191.23
2023-01-09T06:09:23.710Z,97188.23
2023-01-09T06:10:25.717Z,97187.94
2023-01-09T06:11:27.635Z,97188.67
2023-01-09T06:12:30.065Z,97189.38
2023-01-09T06:13:32.079Z,97190.00
2023-01-09T06:14:34.616Z,97189.79
2023-01-09T06:15:36.482Z,97190.04
2023-01-09T06:16:38.418Z,97188.02
2023-01-09T06:17:40.783Z,97185.88
2023-01-09T06:18:42.741Z,97185.25
2023-01-09T06:19:44.904Z,97185.03
2023-01-09T06:20:46.765Z,97186.62
2023-01-09T06:21:49.000Z,97186.42
2023-01-09T06:22:52.273Z,97185.20
2023-01-09T06:23:54.057Z,97185.01
2023-01-09T06:24:55.889Z,97185.31
2023-01-09T06:25:57.815Z,97184.73
2023-01-09T06:26:59.874Z,97183.45
2023-01-09T06:28:02.029Z,97185.70
2023-01-09T06:29:03.996Z,97184.30
2023-01-09T06:30:06.715Z,97183.77
2023-01-09T06:31:08.612Z,97184.79
2023-01-09T06:32:10.426Z,97185.16
2023-01-09T06:33:12.310Z,97186.12
2023-01-09T06:34:14.115Z,97181.98
2023-01-09T06:35:20.561Z,97179.14
2023-01-09T06:36:22.894Z,97182.98
2023-01-09T06:37:24.702Z,97183.15
2023-01-09T06:38:26.595Z,97180.48
2023-01-09T06:39:28.448Z,97181.14
2023-01-09T06:40:30.263Z,97179.13
2023-01-09T06:41:32.104Z,97178.23
2023-01-09T06:42:33.915Z,97174.52
2023-01-09T06:43:36.201Z,97174.21
2023-01-09T06:44:37.985Z,97171.65
2023-01-09T06:45:44.930Z,97172.77
2023-01-09T06:46:46.771Z,97167.39
2023-01-09T06:47:50.201Z,97171.08
2023-01-09T06:48:52.430Z,97166.42
2023-01-09T06:49:54.370Z,97167.30
2023-01-09T06:50:56.294Z,97167.79
2023-01-09T06:51:58.343Z,97169.77
2023-01-09T06:53:00.280Z,97170.77
2023-01-09T06:54:02.362Z,97168.38
2023-01-09T06:55:04.863Z,97171.84
2023-01-09T06:56:06.952Z,97171.09
2023-01-09T06:57:08.990Z,97167.04
2023-01-09T06:58:11.430Z,97164.75
2023-01-09T06:59:13.984Z,97166.89
2023-01-09T07:00:16.424Z,97165.29
2023-01-09T07:01:18.544Z,97170.21
2023-01-09T07:02:22.254Z,97166.33
2023-01-09T07:03:24.188Z,97168.73
2023-01-09T07:04:26.165Z,97166.40
2023-01-09T07:05:27.950Z,97164.54
2023-01-09T07:06:29.907Z,97167.90
2023-01-09T07:07:31.945Z,97173.39
2023-01-09T07:08:34.412Z,97172.05
2023-01-09T07:09:36.270Z,97168.96
2023-01-09T07:10:38.138Z,97166.52
2023-01-09T07:11:40.963Z,97162.25
2023-01-09T07:12:42.987Z,97163.48
2023-01-09T07:13:44.882Z,97160.36
2023-01-09T07:14:46.718Z,97164.94
2023-01-09T07:15:50.431Z,97161.16
2023-01-09T07:16:52.360Z,97160.68
2023-01-09T07:17:54.924Z,97161.19
2023-01-09T07:18:57.008Z,97157.92
2023-01-09T07:20:00.281Z,97160.02
2023-01-09T07:21:02.143Z,97160.06
2023-01-09T07:22:03.993Z,97155.81
2023-01-09T07:23:05.734Z,97152.94
2023-01-09T07:24:07.648Z,97153.15
2023-01-09T07:25:09.585Z,97151.88
2023-01-09T07:26:11.484Z,97150.29
2023-01-09T07:27:13.329Z,97151.55
2023-01-09T07:28:15.263Z,97152.36
2023-01-09T07:29:17.150Z,97155.34
2023-01-09T07:30:19.172Z,97155.62
2023-01-09T07:31:21.121Z,97147.03
2023-01-09T07:32:22.996Z,97154.47
2023-01-09T07:33:24.868Z,97152.98
2023-01-09T07:34:26.794Z,97157.41
2023-01-09T07:35:28.744Z,97158.44
2023-01-09T07:36:30.647Z,97151.40
2023-01-09T07:37:32.489Z,97155.19
2023-01-09T07:38:36.009Z,97153.58
2023-01-09T07:39:39.296Z,97155.92
2023-01-09T07:40:41.311Z,97156.79
2023-01-09T07:41:43.301Z,97159.31
2023-01-09T07:42:45.241Z,97160.27
2023-01-09T07:43:47.337Z,97160.75
2023-01-09T07:44:49.284Z,97165.20
2023-01-09T07:45:51.400Z,97162.85
2023-01-09T07:46:53.279Z,97159.02
2023-01-09T07:47:55.180Z,97157.49
2023-01-09T07:48:56.970Z,97160.92
2023-01-09T07:49:58.766Z,97157.98
2023-01-09T07:51:00.704Z,97158.20
2023-01-09T07:52:03.104Z,97158.90
2023-01-09T07:53:04.932Z,97158.27
2023-01-09T07:54:06.718Z,97157.31
2023-01-09T07:55:09.589Z,97155.87
2023-01-09T07:56:12.163Z,97159.66
2023-01-09T07:57:14.202Z,97157.21
2023-01-09T07:58:16.177Z,97151.93
2023-01-09T07:59:18.019Z,97153.22
2023-01-09T08:00:21.346Z,97154.35
2023-01-09T08:01:23.545Z,97152.23
2023-01-09T08:02:27.241Z,97152.02
2023-01-09T08:03:29.899Z,97148.98
2023-01-09T08:04:31.944Z,97146.33
2023-01-09T08:05:34.265Z,97144.10
2023-01-09T08:06:36.337Z,97140.73
2023-01-09T08:07:38.861Z,97133.92
2023-01-09T08:08:40.777Z,97133.92
2023-01-09T08:09:42.906Z,97141.67
2023-01-09T08:10:44.738Z,97142.02
2023-01-09T08:11:46.519Z,97146.17
2023-01-09T08:12:49.875Z,97141.54
2023-01-09T08:13:52.108Z,97143.16
2023-01-09T08:14:54.172Z,97139.10
2023-01-09T08:15:56.042Z,97138.41
2023-01-09T08:16:58.180Z,97133.89
2023-01-09T08:18:00.006Z,97131.54
2023-01-09T08:19:01.900Z,97132.34
2023-01-09T08:20:03.980Z,97128.23
2023-01-09T08:21:06.029Z,97127.65
2023-01-09T08:22:07.777Z,97129.09
2023-01-09T08:23:09.728Z,97129.68
2023-01-09T08:24:11.540Z,97128.56
2023-01-09T08:25:13.480Z,97125.53
2023-01-09T08:26:15.279Z,97129.22
2023-01-09T08:27:17.157Z,97127.88
2023-01-09T08:28:19.229Z,97128.48
2023-01-09T08:29:21.287Z,97130.19
2023-01-09T08:30:23.171Z,97131.79
2023-01-09T08:31:25.004Z,97131.11
2023-01-09T08:32:26.989Z,97132.39
2023-01-09T08:33:29.496Z,97126.68
2023-01-09T08:34:32.354Z,97124.96
2023-01-09T08:35:34.306Z,97125.29
2023-01-09T08:36:36.228Z,97126.09
2023-01-09T08:37:38.027Z,97124.49
2023-01-09T08:38:40.174Z,97128.06
2023-01-09T08:39:42.337Z,97126.23
2023-01-09T08:40:47.585Z,97131.22
2023-01-09T08:42:08.377Z,97125.98
2023-01-09T08:43:29.057Z,97122.46
2023-01-09T08:45:23.862Z,97126.04
2023-01-09T08:46:44.894Z,97124.81
2023-01-09T08:47:46.847Z,97126.78
2023-01-09T08:48:48.909Z,97126.89
2023-01-09T08:49:51.121Z,97127.70
2023-01-09T08:50:54.410Z,97123.00
2023-01-09T08:51:56.471Z,97125.30
2023-01-09T08:52:58.315Z,97124.70
2023-01-09T08:54:00.234Z,97124.81
2023-01-09T08:55:02.032Z,97125.98
2023-01-09T08:56:04.301Z,97129.89
2023-01-09T08:57:09.231Z,97127.65
2023-01-09T08:58:11.439Z,97131.81
2023-01-09T08:59:13.567Z,97131.17
2023-01-09T09:00:16.219Z,97131.60
2023-01-09T09:01:18.227Z,97135.55
2023-01-09T09:02:20.592Z,97140.21
2023-01-09T09:03:22.900Z,97135.83
2023-01-09T09:04:24.842Z,97140.95
2023-01-09T09:05:29.058Z,97138.91
2023-01-09T09:06:32.199Z,97147.41
2023-01-09T09:07:34.269Z,97143.89
2023-01-09T09:08:36.028Z,97143.02
2023-01-09T09:09:37.911Z,97146.67
2023-01-09T09:10:39.846Z,97143.84
2023-01-09T09:11:42.269Z,97139.73
2023-01-09T09:12:44.818Z,97141.27
2023-01-09T09:13:47.483Z,97142.40
2023-01-09T09:15:08.479Z,97138.02
2023-01-09T09:16:10.437Z,97136.46
2023-01-09T09:17:12.448Z,97137.75
2023-01-09T09:18:14.379Z,97137.59
2023-01-09T09:19:16.623Z,97127.66
2023-01-09T09:20:18.561Z,97132.36
2023-01-09T09:21:20.922Z,97130.59
2023-01-09T09:22:22.997Z,97131.88
2023-01-09T09:23:25.041Z,97131.77
2023-01-09T09:24:27.204Z,97130.81
2023-01-09T09:25:30.356Z,97125.19
2023-01-09T09:26:33.010Z,97126.09
2023-01-09T09:27:36.627Z,97124.16
2023-01-09T09:28:39.082Z,97122.73
2023-01-09T09:29:41.630Z,97119.52
2023-01-09T09:30:43.455Z,97118.45
2023-01-09T09:31:45.423Z,97117.70
2023-01-09T09:32:47.789Z,97115.80
2023-01-09T09:33:50.181Z,97112.90
2023-01-09T09:34:52.381Z,97115.31
2023-01-09T09:35:54.406Z,97114.29
2023-01-09T09:36:56.316Z,97113.23
2023-01-09T09:38:03.941Z,97111.88
2023-01-09T09:39:07.700Z,97107.88
2023-01-09T09:40:25.788Z,97103.27
2023-01-09T09:41:55.664Z,97102.48
2023-01-09T09:43:23.073Z,97101.14
2023-01-09T09:45:07.112Z,97097.50
2023-01-09T09:46:27.355Z,97096.42
2023-01-09T09:47:48.030Z,97092.64
2023-01-09T09:49:34.568Z,97098.56
2023-01-09T09:51:08.755Z,97087.45
2023-01-09T09:52:31.405Z,97086.63
2023-01-09T09:53:43.216Z,97084.33
2023-01-09T09:54:51.442Z,97086.52
2023-01-09T09:55:54.771Z,97081.50
2023-01-09T09:57:00.787Z,97082.88
2023-01-09T09:58:11.789Z,97084.81
2023-01-09T09:59:27.032Z,97082.19
2023-01-09T10:00:30.180Z,97083.11
2023-01-09T10:01:48.584Z,97079.67
2023-01-09T10:03:11.357Z,97076.09
2023-01-09T10:04:18.507Z,97078.72
2023-01-09T10:05:27.962Z,97073.85
2023-01-09T10:06:41.568Z,97074.39
2023-01-09T10:07:49.997Z,97071.02
2023-01-09T10:09:37.258Z,97066.97
2023-01-09T10:10:49.495Z,97066.41
2023-01-09T10:12:18.074Z,97066.09
2023-01-09T10:13:43.456Z,97058.71
2023-01-09T10:14:45.556Z,97054.70
2023-01-09T10:16:05.047Z,97051.23
2023-01-09T10:17:20.110Z,97050.52
2023-01-09T10:18:50.197Z,97048.76
2023-01-09T10:20:04.451Z,97047.67
2023-01-09T10:21:25.940Z,97046.05
2023-01-09T10:22:30.443Z,97043.92
2023-01-09T10:23:54.760Z,97041.31
2023-01-09T10:25:27.046Z,97038.72
2023-01-09T10:26:47.714Z,97034.98
2023-01-09T10:28:31.345Z,97030.06
2023-01-09T10:29:40.234Z,97032.23
2023-01-09T10:31:23.346Z,97031.17
2023-01-09T10:33:01.271Z,97025.70
2023-01-09T10:34:39.966Z,97025.52
2023-01-09T10:36:19.953Z,97029.52
2023-01-09T10:37:42.977Z,97019.84
2023-01-09T10:38:50.392Z,97018.77
2023-01-09T10:40:05.533Z,97017.33
2023-01-09T10:41:27.749Z,97013.05
2023-01-09T10:42:54.663Z,97011.34
2023-01-09T10:44:06.290Z,97011.54
2023-01-09T10:45:32.840Z,97007.58
2023-01-09T10:46:56.190Z,97004.30
2023-01-09T10:48:06.042Z,96998.24
2023-01-09T10:49:16.192Z,97000.39
2023-01-09T10:50:29.983Z,96996.52
2023-01-09T10:51:39.603Z,96993.92
2023-01-09T10:52:42.972Z,96995.35
2023-01-09T10:53:54.353Z,96990.64
2023-01-09T10:55:06.141Z,96992.45
2023-01-09T10:56:20.112Z,96990.21
2023-01-09T10:57:43.373Z,96991.66
2023-01-09T10:58:45.440Z,96988.02
2023-01-09T10:59:47.511Z,96985.27
2023-01-09T11:00:51.508Z,96984.30
2023-01-09T11:01:54.834Z,96982.11
2023-01-09T11:02:56.725Z,96977.56
2023-01-09T11:04:01.616Z,96977.45
2023-01-09T11:05:03.650Z,96977.06
2023-01-09T11:06:22.032Z,96972.64
2023-01-09T11:07:31.223Z,96967.49
2023-01-09T11:08:45.103Z,96967.81
2023-01-09T11:10:11.927Z,96962.77
2023-01-09T11:11:33.351Z,96966.09
2023-01-09T11:12:37.052Z,96962.95
2023-01-09T11:13:43.844Z,96957.70
2023-01-09T11:14:45.694Z,96958.48
2023-01-09T11:16:00.937Z,96955.75
2023-01-09T11:17:04.428Z,96954.73
2023-01-09T11:18:24.736Z,96953.16
2023-01-09T11:19:27.249Z,96951.60
2023-01-09T11:20:30.521Z,96951.52
2023-01-09T11:21:39.601Z,96955.77
2023-01-09T11:22:47.832Z,96955.44
2023-01-09T11:23:50.311Z,96950.92
2023-01-09T11:25:03.042Z,96953.66
2023-01-09T11:26:05.051Z,96952.05
2023-01-09T11:27:13.196Z,96947.34
2023-01-09T11:28:15.605Z,96945.36
2023-01-09T11:29:20.644Z,96949.56
2023-01-09T11:30:27.762Z,96950.37
2023-01-09T11:31:29.874Z,96955.23
2023-01-09T11:32:33.011Z,96956.44
2023-01-09T11:33:43.203Z,96952.73
2023-01-09T11:34:46.536Z,96948.77
2023-01-09T11:35:57.903Z,96947.02
2023-01-09T11:37:08.920Z,96945.32
2023-01-09T11:38:17.786Z,96944.20
2023-01-09T11:39:29.030Z,96944.67
2023-01-09T11:40:38.157Z,96948.80
2023-01-09T11:41:40.494Z,96954.05
2023-01-09T11:43:04.258Z,96952.31
2023-01-09T11:44:06.213Z,96946.52
2023-01-09T11:45:15.611Z,96947.14
2023-01-09T11:46:37.661Z,96952.44
2023-01-09T11:47:41.173Z,96948.08
2023-01-09T11:48:57.427Z,96944.12
2023-01-09T11:50:29.703Z,96947.94
2023-01-09T11:51:35.084Z,96951.15
2023-01-09T11:52:36.978Z,96947.05
2023-01-09T11:54:08.565Z,96945.98
2023-01-09T11:55:19.641Z,96944.77
2023-01-09T11:56:22.658Z,96940.61
2023-01-09T11:57:26.217Z,96947.91
2023-01-09T11:58:35.144Z,96943.52
2023-01-09T11:59:37.046Z,96943.54
2023-01-09T12:01:14.230Z,96942.70
2023-01-09T12:02:53.353Z,96947.44
2023-01-09T12:03:58.670Z,96945.98
2023-01-09T12:05:09.463Z,96942.79
2023-01-09T12:06:47.746Z,96941.36
2023-01-09T12:07:58.873Z,96940.22
2023-01-09T12:09:07.961Z,96942.29
2023-01-09T12:10:12.770Z,96943.13
2023-01-09T12:11:24.292Z,96942.66
2023-01-09T12:12:40.139Z,96943.23
2023-01-09T12:14:02.352Z,96939.98
2023-01-09T12:15:33.526Z,96942.80
2023-01-09T12:16:53.846Z,96937.11
2023-01-09T12:18:16.008Z,96942.03
2023-01-09T12:19:52.424Z,96941.29
2023-01-09T12:21:11.431Z,96941.55
2023-01-09T12:22:28.558Z,96940.92
2023-01-09T12:23:48.862Z,96938.73
2023-01-09T12:25:15.126Z,96940.89
2023-01-09T12:26:24.078Z,96936.58
2023-01-09T12:27:57.382Z,96937.52
2023-01-09T12:29:23.583Z,96937.02
2023-01-09T12:30:34.362Z,96934.39
2023-01-09T12:32:04.641Z,96934.67
2023-01-09T12:33:21.838Z,96932.42
2023-01-09T12:34:38.733Z,96932.67
2023-01-09T12:35:50.935Z,96937.92
2023-01-09T12:37:20.346Z,96940.41
2023-01-09T12:38:52.744Z,96935.46
2023-01-09T12:40:03.992Z,96940.08
2023-01-09T12:41:24.542Z,96934.77
2023-01-09T12:42:38.634Z,96933.91
2023-01-09T12:44:11.919Z,96936.57
2023-01-09T12:45:32.485Z,96935.05
2023-01-09T12:47:05.803Z,96933.45
2023-01-09T12:48:47.456Z,96933.96
2023-01-09T12:50:01.468Z,96936.39
2023-01-09T12:51:42.219Z,96938.59
2023-01-09T12:53:09.278Z,96934.98
2023-01-09T12:54:19.617Z,96937.17
2023-01-09T12:55:27.585Z,96940.27
2023-01-09T12:56:52.996Z,96937.84
2023-01-09T12:58:01.652Z,96939.63
2023-01-09T12:59:32.009Z,96937.05
2023-01-09T13:00:51.721Z,96938.88
2023-01-09T13:02:00.205Z,96942.05
2023-01-09T13:03:23.511Z,96937.70
2023-01-09T13:04:38.025Z,96935.52
2023-01-09T13:05:49.992Z,96934.45
2023-01-09T13:07:01.277Z,96934.31
2023-01-09T13:08:25.304Z,96937.16
2023-01-09T13:09:46.092Z,96939.11
2023-01-09T13:11:19.969Z,96937.61
2023-01-09T13:12:25.562Z,96931.97
2023-01-09T13:13:49.072Z,96930.36